createdAt,value
2023-02-28T00:01:28.796Z,10.43
2023-02-28T00:03:58.566Z,18.30
2023-02-28T00:06:26.908Z,11.27
2023-02-28T00:08:55.041Z,7.10
2023-02-28T00:11:23.214Z,7.50
2023-02-28T00:13:51.634Z,8.47
2023-02-28T00:16:21.829Z,14.23
2023-02-28T00:18:50.654Z,13.80
2023-02-28T00:21:22.059Z,17.70
2023-02-28T00:23:50.314Z,47.00
2023-02-28T00:26:21.290Z,16.40
2023-02-28T00:28:51.049Z,8.87
2023-02-28T00:31:19.429Z,6.93
2023-02-28T00:33:47.541Z,9.70
2023-02-28T00:36:16.534Z,7.53
2023-02-28T00:38:46.020Z,6.20
2023-02-28T00:41:14.254Z,5.73
2023-02-28T00:43:42.642Z,6.67
2023-02-28T00:46:12.988Z,6.43
2023-02-28T00:48:41.170Z,7.20
2023-02-28T00:51:10.554Z,6.27
2023-02-28T00:53:38.870Z,7.00
2023-02-28T00:56:09.103Z,7.83
2023-02-28T00:58:37.360Z,8.47
2023-02-28T01:01:06.115Z,7.63
2023-02-28T01:03:34.641Z,6.73
2023-02-28T01:06:02.897Z,6.13
2023-02-28T01:08:31.080Z,5.60
2023-02-28T01:10:59.401Z,6.90
2023-02-28T01:13:28.960Z,6.67
2023-02-28T01:15:58.471Z,7.17
2023-02-28T01:18:26.767Z,6.37
2023-02-28T01:20:55.251Z,8.77
2023-02-28T01:23:24.882Z,6.10
2023-02-28T01:25:53.236Z,6.17
2023-02-28T01:28:21.381Z,6.23
2023-02-28T01:30:53.726Z,6.23
2023-02-28T01:33:22.094Z,6.13
2023-02-28T01:35:50.413Z,5.63
2023-02-28T01:38:23.110Z,7.63
2023-02-28T01:40:52.353Z,5.67
2023-02-28T01:43:24.616Z,6.70
2023-02-28T01:45:54.945Z,6.37
2023-02-28T01:48:27.135Z,6.50
2023-02-28T01:50:57.235Z,5.83
2023-02-28T01:53:32.466Z,7.23
2023-02-28T01:56:00.893Z,7.57
2023-02-28T01:58:29.016Z,6.07
2023-02-28T02:00:59.957Z,5.93
2023-02-28T02:03:28.442Z,5.33
2023-02-28T02:05:56.609Z,6.63
2023-02-28T02:08:27.546Z,5.93
2023-02-28T02:10:59.262Z,5.50
2023-02-28T02:13:56.397Z,6.10
2023-02-28T02:16:44.326Z,4.87
2023-02-28T02:19:32.298Z,6.77
2023-02-28T02:22:33.234Z,5.63
2023-02-28T02:25:21.807Z,7.70
2023-02-28T02:28:07.290Z,5.73
2023-02-28T02:30:58.540Z,5.70
2023-02-28T02:33:41.581Z,5.63
2023-02-28T02:36:17.459Z,6.33
2023-02-28T02:38:51.850Z,7.50
2023-02-28T02:41:26.685Z,7.73
2023-02-28T02:43:59.503Z,6.47
2023-02-28T02:46:34.245Z,7.97
2023-02-28T02:49:05.757Z,8.53
2023-02-28T02:51:36.384Z,6.80
2023-02-28T02:54:10.313Z,7.50
2023-02-28T02:56:41.182Z,7.40
2023-02-28T02:59:13.613Z,8.67
2023-02-28T03:01:43.787Z,10.27
2023-02-28T03:04:16.145Z,12.70
2023-02-28T03:06:45.797Z,10.50
2023-02-28T03:09:14.266Z,9.40
2023-02-28T03:11:43.700Z,10.77
2023-02-28T03:14:25.384Z,8.53
2023-02-28T03:17:07.465Z,7.97
2023-02-28T03:19:53.097Z,7.17
2023-02-28T03:22:52.004Z,9.90
2023-02-28T03:25:29.264Z,8.73
2023-02-28T03:28:05.399Z,6.93
2023-02-28T03:30:42.753Z,8.57
2023-02-28T03:33:16.250Z,9.50
2023-02-28T03:35:50.276Z,8.80
2023-02-28T03:38:23.009Z,6.80
2023-02-28T03:40:53.626Z,8.13
2023-02-28T03:43:26.969Z,7.53
2023-02-28T03:45:57.995Z,9.07
2023-02-28T03:48:32.626Z,8.40
2023-02-28T03:51:02.631Z,6.90
2023-02-28T03:53:36.734Z,7.80
2023-02-28T03:56:13.459Z,9.37
2023-02-28T03:58:49.689Z,8.30
2023-02-28T04:01:22.561Z,9.30
2023-02-28T04:03:52.770Z,8.20
2023-02-28T04:06:23.848Z,8.33
2023-02-28T04:08:53.991Z,7.50
2023-02-28T04:11:25.951Z,6.67
2023-02-28T04:13:54.173Z,9.83
2023-02-28T04:16:34.505Z,9.17
2023-02-28T04:19:04.576Z,7.60
2023-02-28T04:21:34.044Z,8.60
2023-02-28T04:24:03.926Z,11.03
2023-02-28T04:26:32.777Z,7.13
2023-02-28T04:29:02.233Z,7.57
2023-02-28T04:31:30.786Z,9.27
2023-02-28T04:33:59.663Z,7.13
2023-02-28T04:36:28.526Z,7.13
2023-02-28T04:38:58.987Z,10.03
2023-02-28T04:41:32.170Z,9.47
2023-02-28T04:44:00.717Z,7.53
2023-02-28T04:46:29.106Z,9.57
2023-02-28T04:48:57.349Z,8.57
2023-02-28T04:51:25.724Z,8.60
2023-02-28T04:53:54.981Z,9.40
2023-02-28T04:56:23.621Z,9.73
2023-02-28T04:58:55.605Z,9.23
2023-02-28T05:01:27.499Z,13.30
2023-02-28T05:04:00.160Z,13.33
2023-02-28T05:06:30.943Z,9.30
2023-02-28T05:08:59.948Z,10.30
2023-02-28T05:11:35.836Z,8.33
2023-02-28T05:14:06.600Z,10.20
2023-02-28T05:16:35.088Z,14.37
2023-02-28T05:19:03.559Z,13.30
2023-02-28T05:21:33.928Z,11.07
2023-02-28T05:24:03.994Z,13.10
2023-02-28T05:26:33.199Z,21.47
2023-02-28T05:29:01.335Z,11.27
2023-02-28T05:31:33.076Z,10.20
2023-02-28T05:34:01.507Z,12.23
2023-02-28T05:36:29.980Z,10.80
2023-02-28T05:38:58.290Z,11.27
2023-02-28T05:41:27.308Z,12.77
2023-02-28T05:43:55.983Z,13.93
2023-02-28T05:46:24.269Z,12.07
2023-02-28T05:48:56.916Z,10.17
2023-02-28T05:51:25.249Z,9.30
2023-02-28T05:53:53.656Z,9.97
2023-02-28T05:56:21.923Z,7.87
2023-02-28T05:58:50.180Z,9.37
2023-02-28T06:01:28.980Z,9.53
2023-02-28T06:03:58.798Z,9.27
2023-02-28T06:06:27.081Z,12.03
2023-02-28T06:08:55.310Z,12.73
2023-02-28T06:11:28.223Z,10.30
2023-02-28T06:13:57.832Z,11.93
2023-02-28T06:16:26.361Z,12.47
2023-02-28T06:18:56.754Z,9.50
2023-02-28T06:21:26.652Z,13.67
2023-02-28T06:23:55.419Z,9.53
2023-02-28T06:26:23.573Z,9.10
2023-02-28T06:28:52.131Z,9.60
2023-02-28T06:31:21.026Z,8.90
2023-02-28T06:33:51.113Z,10.60
2023-02-28T06:36:19.836Z,7.77
2023-02-28T06:38:52.523Z,9.77
2023-02-28T06:41:20.660Z,9.60
2023-02-28T06:43:48.955Z,8.30
2023-02-28T06:46:17.308Z,8.90
2023-02-28T06:48:47.973Z,10.20
2023-02-28T06:51:18.523Z,9.37
2023-02-28T06:53:46.866Z,10.27
2023-02-28T06:56:18.231Z,7.63
2023-02-28T06:58:49.331Z,10.23
2023-02-28T07:01:18.125Z,8.50
2023-02-28T07:03:46.411Z,8.65
2023-02-28T07:06:14.810Z,6.50
2023-02-28T07:08:42.980Z,8.70
2023-02-28T07:11:11.241Z,7.53
2023-02-28T07:13:40.808Z,9.18
2023-02-28T07:16:11.912Z,8.88
2023-02-28T07:18:40.801Z,9.48
2023-02-28T07:21:10.796Z,10.50
2023-02-28T07:23:40.061Z,9.90
2023-02-28T07:26:12.175Z,9.35
2023-02-28T07:28:41.970Z,8.75
2023-02-28T07:31:11.004Z,9.48
2023-02-28T07:33:39.551Z,10.25
2023-02-28T07:36:09.948Z,9.75
2023-02-28T07:38:38.882Z,10.68
2023-02-28T07:41:07.100Z,12.05
2023-02-28T07:43:35.348Z,8.93
2023-02-28T07:46:06.878Z,11.68
2023-02-28T07:48:35.430Z,9.70
2023-02-28T07:51:04.667Z,10.20
2023-02-28T07:53:33.126Z,11.18
2023-02-28T07:56:02.801Z,10.05
2023-02-28T07:58:31.722Z,9.32
2023-02-28T08:01:06.715Z,10.20
2023-02-28T08:03:36.621Z,10.98
2023-02-28T08:06:05.596Z,8.82
2023-02-28T08:08:33.947Z,13.80
2023-02-28T08:11:02.869Z,26.45
2023-02-28T08:13:32.036Z,76.47
2023-02-28T08:16:00.290Z,9.63
2023-02-28T08:18:28.485Z,8.93
2023-02-28T08:20:58.524Z,19.10
2023-02-28T08:23:26.770Z,21.48
2023-02-28T08:25:58.635Z,20.10
2023-02-28T08:28:27.694Z,8.35
2023-02-28T08:30:56.056Z,8.40
2023-02-28T08:33:24.993Z,5.60
2023-02-28T08:35:56.311Z,5.88
2023-02-28T08:38:26.418Z,32.70
2023-02-28T08:41:01.233Z,9.25
2023-02-28T08:43:29.901Z,7.50
2023-02-28T08:45:58.761Z,5.30
2023-02-28T08:48:27.533Z,4.50
2023-02-28T08:51:07.117Z,5.05
2023-02-28T08:53:37.989Z,5.32
2023-02-28T08:56:08.578Z,8.60
2023-02-28T08:58:36.948Z,6.63
2023-02-28T09:01:10.644Z,6.70
2023-02-28T09:03:39.041Z,4.60
2023-02-28T09:06:07.386Z,5.55
2023-02-28T09:08:37.086Z,14.93
2023-02-28T09:11:05.949Z,5.82
2023-02-28T09:13:34.703Z,3.55
2023-02-28T09:16:04.923Z,46.97
2023-02-28T09:18:33.532Z,8.90
2023-02-28T09:21:01.727Z,9.52
2023-02-28T09:23:29.876Z,5.90
2023-02-28T09:25:59.510Z,3.42
2023-02-28T09:28:27.850Z,3.35
2023-02-28T09:30:58.817Z,5.20
2023-02-28T09:33:27.877Z,4.30
2023-02-28T09:36:01.648Z,5.30
2023-02-28T09:38:30.416Z,4.07
2023-02-28T09:41:02.557Z,5.53
2023-02-28T09:43:36.705Z,3.72
2023-02-28T09:46:13.116Z,4.38
2023-02-28T09:48:44.891Z,4.57
2023-02-28T09:51:26.909Z,3.38
2023-02-28T09:54:01.453Z,7.70
2023-02-28T09:56:36.786Z,50.25
2023-02-28T09:59:12.258Z,7.25
2023-02-28T10:01:46.457Z,4.20
2023-02-28T10:04:22.707Z,4.53
2023-02-28T10:06:53.011Z,15.65
2023-02-28T10:09:25.163Z,3.85
2023-02-28T10:11:59.034Z,4.68
2023-02-28T10:14:29.992Z,4.15
2023-02-28T10:17:01.356Z,4.30
2023-02-28T10:19:35.794Z,2.92
2023-02-28T10:22:11.720Z,3.45
2023-02-28T10:24:43.231Z,4.80
2023-02-28T10:27:18.227Z,10.77
2023-02-28T10:29:48.302Z,4.72
2023-02-28T10:32:19.510Z,5.10
2023-02-28T10:34:54.503Z,4.95
2023-02-28T10:37:23.768Z,4.68
2023-02-28T10:39:51.916Z,5.20
2023-02-28T10:42:28.042Z,8.77
2023-02-28T10:45:13.911Z,4.03
2023-02-28T10:47:54.924Z,4.88
2023-02-28T10:50:32.995Z,3.80
2023-02-28T10:53:17.916Z,4.22
2023-02-28T10:55:46.207Z,2.47
2023-02-28T10:58:24.948Z,4.53
2023-02-28T11:00:54.265Z,4.88
2023-02-28T11:03:34.127Z,3.60
2023-02-28T11:06:09.062Z,3.47
2023-02-28T11:08:47.755Z,3.97
2023-02-28T11:11:17.853Z,4.45
2023-02-28T11:13:50.899Z,4.45
2023-02-28T11:16:19.418Z,3.05
2023-02-28T11:18:51.893Z,2.80
2023-02-28T11:21:28.967Z,3.90
2023-02-28T11:24:06.014Z,2.47
2023-02-28T11:26:44.205Z,2.97
2023-02-28T11:29:22.533Z,2.90
2023-02-28T11:32:20.642Z,3.00
2023-02-28T11:35:03.609Z,3.20
2023-02-28T11:37:33.696Z,2.50
2023-02-28T11:40:02.015Z,1.88
2023-02-28T11:42:44.670Z,5.50
2023-02-28T11:45:31.989Z,2.85
2023-02-28T11:48:08.998Z,2.72
2023-02-28T11:50:54.086Z,4.82
2023-02-28T11:53:32.946Z,2.97
2023-02-28T11:56:08.529Z,5.35
2023-02-28T11:58:47.390Z,3.67
2023-02-28T12:01:33.220Z,4.45
2023-02-28T12:04:13.958Z,4.20
2023-02-28T12:06:52.104Z,2.83
2023-02-28T12:09:43.612Z,3.63
2023-02-28T12:12:35.019Z,5.55
2023-02-28T12:15:19.020Z,4.65
2023-02-28T12:18:07.237Z,5.28
2023-02-28T12:20:44.351Z,3.25
2023-02-28T12:23:33.001Z,3.03
2023-02-28T12:26:10.507Z,3.17
2023-02-28T12:28:43.973Z,4.65
2023-02-28T12:31:18.092Z,3.45
2023-02-28T12:33:53.434Z,3.25
2023-02-28T12:36:24.815Z,2.80
2023-02-28T12:38:58.563Z,3.67
2023-02-28T12:41:33.525Z,2.78
2023-02-28T12:44:05.920Z,3.15
2023-02-28T12:46:38.081Z,2.90
2023-02-28T12:49:11.753Z,3.85
2023-02-28T12:51:40.952Z,4.82
2023-02-28T12:54:18.462Z,3.75
2023-02-28T12:56:55.832Z,3.83
2023-02-28T12:59:29.203Z,4.60
2023-02-28T13:02:29.819Z,2.72
2023-02-28T13:05:22.085Z,6.75
2023-02-28T13:08:22.662Z,5.15
2023-02-28T13:10:55.575Z,3.97
2023-02-28T13:13:25.469Z,4.03
2023-02-28T13:16:03.735Z,5.18
2023-02-28T13:18:37.282Z,3.92
2023-02-28T13:21:08.956Z,4.88
2023-02-28T13:24:01.611Z,5.77
2023-02-28T13:27:10.224Z,5.10
2023-02-28T13:29:41.458Z,5.30
2023-02-28T13:32:40.051Z,5.05
2023-02-28T13:35:39.394Z,3.90
2023-02-28T13:38:39.500Z,3.97
2023-02-28T13:41:48.868Z,4.55
2023-02-28T13:44:19.804Z,5.47
2023-02-28T13:47:31.133Z,4.63
2023-02-28T13:50:17.979Z,3.38
2023-02-28T13:52:54.499Z,4.18
2023-02-28T13:55:31.188Z,4.38
2023-02-28T13:58:24.554Z,6.85
2023-02-28T14:01:09.898Z,4.38
2023-02-28T14:03:49.029Z,6.18
2023-02-28T14:06:27.394Z,5.72
2023-02-28T14:09:00.381Z,4.43
2023-02-28T14:11:33.443Z,4.97
2023-02-28T14:14:02.987Z,4.50
2023-02-28T14:16:41.495Z,5.60
2023-02-28T14:19:15.351Z,4.80
2023-02-28T14:21:53.792Z,5.70
2023-02-28T14:24:50.993Z,6.20
2023-02-28T14:27:45.541Z,3.70
2023-02-28T14:30:38.978Z,6.13
2023-02-28T14:33:29.032Z,5.22
2023-02-28T14:36:13.977Z,5.10
2023-02-28T14:38:46.935Z,7.18
2023-02-28T14:41:26.711Z,4.73
2023-02-28T14:44:00.978Z,5.10
2023-02-28T14:46:37.577Z,3.83
2023-02-28T14:49:08.161Z,4.15
2023-02-28T14:51:37.124Z,6.47
2023-02-28T14:54:06.004Z,4.35
2023-02-28T14:56:38.845Z,3.75
2023-02-28T14:59:28.574Z,4.88
2023-02-28T15:02:18.459Z,4.93
2023-02-28T15:04:56.420Z,6.40
2023-02-28T15:07:29.410Z,4.05
2023-02-28T15:10:20.930Z,4.00
2023-02-28T15:12:55.964Z,3.47
2023-02-28T15:15:36.070Z,3.67
2023-02-28T15:18:12.733Z,4.47
2023-02-28T15:20:43.392Z,3.92
2023-02-28T15:23:13.046Z,3.58
2023-02-28T15:25:42.908Z,3.75
2023-02-28T15:28:17.528Z,4.15
2023-02-28T15:30:57.090Z,3.42
2023-02-28T15:33:27.670Z,3.58
2023-02-28T15:36:08.073Z,5.13
2023-02-28T15:38:38.682Z,4.53
2023-02-28T15:41:09.151Z,3.92
2023-02-28T15:43:41.688Z,5.63
2023-02-28T15:46:14.251Z,5.50
2023-02-28T15:48:51.392Z,4.43
2023-02-28T15:51:22.104Z,5.57
2023-02-28T15:53:54.289Z,5.03
2023-02-28T15:56:27.205Z,4.60
2023-02-28T15:58:57.422Z,4.70
2023-02-28T16:01:31.120Z,3.90
2023-02-28T16:04:01.907Z,5.03
2023-02-28T16:06:39.454Z,4.20
2023-02-28T16:09:10.881Z,6.00
2023-02-28T16:11:43.335Z,4.32
2023-02-28T16:14:18.470Z,5.85
2023-02-28T16:16:50.411Z,6.47
2023-02-28T16:19:18.894Z,5.75
2023-02-28T16:21:47.451Z,4.70
2023-02-28T16:24:16.812Z,3.78
2023-02-28T16:26:49.452Z,4.10
2023-02-28T16:29:25.332Z,5.07
2023-02-28T16:31:55.495Z,4.90
2023-02-28T16:34:24.217Z,6.00
2023-02-28T16:36:53.236Z,3.72
2023-02-28T16:39:22.235Z,4.32
2023-02-28T16:41:52.323Z,4.80
2023-02-28T16:44:29.671Z,4.37
2023-02-28T16:47:01.593Z,4.18
2023-02-28T16:49:41.789Z,4.80
2023-02-28T16:52:18.754Z,5.03
2023-02-28T16:54:47.874Z,6.47
2023-02-28T16:57:22.883Z,5.37
2023-02-28T16:59:52.079Z,4.70
2023-02-28T17:02:22.062Z,5.07
2023-02-28T17:04:50.404Z,4.33
2023-02-28T17:07:19.494Z,5.80
2023-02-28T17:09:47.848Z,7.50
2023-02-28T17:12:16.456Z,5.45
2023-02-28T17:14:44.679Z,4.40
2023-02-28T17:17:19.808Z,6.32
2023-02-28T17:19:49.642Z,6.43
2023-02-28T17:22:17.856Z,4.97
2023-02-28T17:24:46.437Z,6.85
2023-02-28T17:27:14.939Z,5.43
2023-02-28T17:29:43.192Z,6.40
2023-02-28T17:32:19.004Z,7.13
2023-02-28T17:34:48.884Z,5.47
2023-02-28T17:37:17.315Z,5.87
2023-02-28T17:39:45.546Z,6.67
2023-02-28T17:42:14.150Z,4.73
2023-02-28T17:44:42.293Z,5.88
2023-02-28T17:47:13.912Z,4.53
2023-02-28T17:49:42.580Z,5.37
2023-02-28T17:52:12.228Z,5.63
2023-02-28T17:54:40.598Z,5.70
2023-02-28T17:57:11.565Z,4.67
2023-02-28T17:59:39.835Z,5.10
2023-02-28T18:02:08.515Z,4.93
2023-02-28T18:04:36.949Z,7.33
2023-02-28T18:07:05.514Z,5.65
2023-02-28T18:09:35.194Z,6.27
2023-02-28T18:12:03.403Z,12.80
2023-02-28T18:14:31.814Z,10.00
2023-02-28T18:17:00.228Z,8.63
2023-02-28T18:19:28.546Z,9.47
2023-02-28T18:21:57.235Z,7.50
2023-02-28T18:24:26.191Z,8.77
2023-02-28T18:26:55.794Z,18.80
2023-02-28T18:29:26.527Z,27.07
2023-02-28T18:31:56.242Z,23.23
2023-02-28T18:34:26.379Z,11.33
2023-02-28T18:36:54.986Z,9.37
2023-02-28T18:39:23.528Z,10.33
2023-02-28T18:41:51.944Z,8.10
2023-02-28T18:44:22.430Z,8.93
2023-02-28T18:46:51.408Z,8.57
2023-02-28T18:49:19.886Z,9.87
2023-02-28T18:51:48.766Z,12.63
2023-02-28T18:54:18.616Z,11.23
2023-02-28T18:56:47.330Z,13.07
2023-02-28T18:59:15.825Z,16.97
2023-02-28T19:01:46.554Z,14.53
2023-02-28T19:04:15.946Z,19.97
2023-02-28T19:06:44.236Z,18.23
2023-02-28T19:09:12.499Z,18.97
2023-02-28T19:11:41.073Z,18.50
2023-02-28T19:14:12.461Z,15.60
2023-02-28T19:16:41.218Z,12.53
2023-02-28T19:19:10.906Z,14.97
2023-02-28T19:21:39.171Z,12.13
2023-02-28T19:24:07.682Z,11.87
2023-02-28T19:26:35.928Z,11.30
2023-02-28T19:29:05.682Z,11.53
2023-02-28T19:31:34.489Z,11.50
2023-02-28T19:34:02.943Z,10.43
2023-02-28T19:36:33.574Z,14.20
2023-02-28T19:39:01.897Z,13.63
2023-02-28T19:41:30.332Z,17.50
2023-02-28T19:43:59.310Z,16.33
2023-02-28T19:46:28.836Z,19.67
2023-02-28T19:49:06.334Z,19.47
2023-02-28T19:51:38.379Z,13.93
2023-02-28T19:54:06.593Z,14.30
2023-02-28T19:56:34.835Z,15.77
2023-02-28T19:59:04.900Z,16.03
2023-02-28T20:01:33.406Z,12.93
2023-02-28T20:04:04.847Z,15.33
2023-02-28T20:06:33.884Z,14.73
2023-02-28T20:09:03.567Z,14.17
2023-02-28T20:11:31.830Z,13.43
2023-02-28T20:14:00.639Z,16.93
2023-02-28T20:16:32.522Z,21.53
2023-02-28T20:19:01.023Z,17.53
2023-02-28T20:21:29.429Z,16.17
2023-02-28T20:23:57.717Z,14.93
2023-02-28T20:26:27.655Z,13.43
2023-02-28T20:28:56.209Z,15.67
2023-02-28T20:31:26.451Z,12.80
2023-02-28T20:33:54.744Z,15.40
2023-02-28T20:36:23.792Z,14.37
2023-02-28T20:38:54.002Z,14.37
2023-02-28T20:41:23.548Z,15.30
2023-02-28T20:43:58.129Z,15.00
2023-02-28T20:46:26.841Z,16.47
2023-02-28T20:48:55.779Z,16.73
2023-02-28T20:51:24.981Z,17.50
2023-02-28T20:53:53.422Z,15.87
2023-02-28T20:56:23.745Z,14.00
2023-02-28T20:58:57.698Z,17.97
2023-02-28T21:01:27.739Z,14.83
2023-02-28T21:03:57.544Z,15.57
2023-02-28T21:06:28.520Z,16.03
2023-02-28T21:08:57.595Z,15.53
2023-02-28T21:11:27.916Z,15.50
2023-02-28T21:13:59.700Z,15.63
2023-02-28T21:16:29.841Z,17.83
2023-02-28T21:19:03.655Z,16.07
2023-02-28T21:21:33.253Z,17.50
2023-02-28T21:24:01.632Z,18.40
2023-02-28T21:26:30.361Z,21.23
2023-02-28T21:29:01.961Z,20.17
2023-02-28T21:31:32.260Z,21.00
2023-02-28T21:34:02.027Z,20.83
2023-02-28T21:36:33.396Z,18.50
2023-02-28T21:39:05.710Z,21.13
2023-02-28T21:41:33.977Z,17.93
2023-02-28T21:44:03.807Z,21.03
2023-02-28T21:46:33.060Z,20.30
2023-02-28T21:49:01.571Z,21.60
2023-02-28T21:51:32.124Z,20.50
2023-02-28T21:54:02.141Z,21.57
2023-02-28T21:56:32.235Z,20.07
2023-02-28T21:59:01.578Z,18.27
2023-02-28T22:01:35.712Z,21.83
2023-02-28T22:04:05.714Z,24.73
2023-02-28T22:06:35.482Z,30.37
2023-02-28T22:09:07.300Z,31.73
2023-02-28T22:11:37.103Z,28.87
2023-02-28T22:14:10.780Z,27.03
2023-02-28T22:16:56.630Z,29.13
2023-02-28T22:19:27.673Z,25.47
2023-02-28T22:21:56.847Z,25.53
2023-02-28T22:24:25.106Z,25.87
2023-02-28T22:26:53.841Z,29.03
2023-02-28T22:29:22.166Z,28.30
2023-02-28T22:31:51.890Z,24.87
2023-02-28T22:34:20.240Z,24.07
2023-02-28T22:36:48.458Z,27.33
2023-02-28T22:39:16.759Z,26.10
2023-02-28T22:41:44.931Z,26.80
2023-02-28T22:44:13.432Z,25.13
2023-02-28T22:46:41.734Z,24.53
2023-02-28T22:49:11.591Z,19.90
2023-02-28T22:51:39.797Z,27.13
2023-02-28T22:54:07.996Z,26.57
2023-02-28T22:56:36.295Z,28.27
2023-02-28T22:59:04.568Z,28.67
2023-02-28T23:01:34.904Z,29.00
2023-02-28T23:04:04.158Z,33.47
2023-02-28T23:06:37.735Z,34.00
2023-02-28T23:09:08.739Z,30.87
2023-02-28T23:11:40.058Z,31.30
2023-02-28T23:14:09.243Z,30.93
2023-02-28T23:16:40.928Z,27.23
2023-02-28T23:19:12.775Z,25.93
2023-02-28T23:21:43.586Z,23.97
2023-02-28T23:24:13.113Z,24.47
2023-02-28T23:26:44.050Z,24.80
2023-02-28T23:29:14.254Z,27.60
2023-02-28T23:31:42.790Z,30.27
2023-02-28T23:34:11.081Z,25.73
2023-02-28T23:36:43.478Z,22.53
2023-02-28T23:39:13.785Z,24.07
2023-02-28T23:41:42.257Z,24.67
2023-02-28T23:44:16.917Z,22.33
2023-02-28T23:46:45.955Z,27.00
2023-02-28T23:49:14.909Z,22.53
2023-02-28T23:51:43.591Z,23.90
2023-02-28T23:54:13.434Z,26.10
2023-02-28T23:56:41.738Z,25.33
2023-02-28T23:59:10.367Z,23.03
